Time;durP1;ratioP1;P1;durP2;ratioP2;P2;SDS_P1;SDS_P2;PMS_P1;PMS_P2;Temp;Humidity;BMP_temperature;BMP_pressure;BME280_temperature;BME280_humidity;BME280_pressure;Samples;Min_cycle;Max_cycle;Signal;HPM_P1;HPM_P2
2021/11/02 00:01:37;;;;;;;13.10;4.33;;;;;;;6.77;85.44;100166.81;5012502;28;20271;-71
2021/11/02 00:04:02;;;;;;;8.97;3.80;;;;;;;6.81;86.44;100173.69;5012640;28;20180;-70
2021/11/02 00:06:28;;;;;;;7.07;4.10;;;;;;;6.77;86.55;100171.88;5011080;28;20193;-71
2021/11/02 00:08:53;;;;;;;7.50;3.87;;;;;;;6.83;87.33;100172.03;5012537;28;20214;-70
2021/11/02 00:11:18;;;;;;;10.53;4.37;;;;;;;6.87;87.48;100168.72;5012370;28;20280;-70
2021/11/02 00:13:46;;;;;;;10.03;4.13;;;;;;;6.88;87.07;100170.44;5012327;28;20207;-70
2021/11/02 00:16:20;;;;;;;6.80;3.90;;;;;;;6.91;87.41;100168.81;5008887;28;20199;-70
2021/11/02 00:18:50;;;;;;;8.00;4.27;;;;;;;6.87;87.66;100171.28;5012401;28;20175;-71
2021/11/02 00:21:16;;;;;;;7.60;3.97;;;;;;;6.85;86.49;100176.31;5010864;28;20562;-71
2021/11/02 00:23:41;;;;;;;6.77;4.20;;;;;;;6.80;86.04;100169.41;5012678;28;20202;-71
2021/11/02 00:26:10;;;;;;;7.50;4.27;;;;;;;6.79;86.68;100171.09;5011806;28;20583;-70
2021/11/02 00:28:37;;;;;;;9.73;3.67;;;;;;;6.79;86.27;100176.19;5012058;28;20600;-71
2021/11/02 00:31:02;;;;;;;12.80;4.03;;;;;;;6.77;86.02;100172.72;5011099;28;20203;-71
2021/11/02 00:33:28;;;;;;;7.10;3.80;;;;;;;6.77;86.25;100179.53;5010846;28;20191;-71
2021/11/02 00:35:54;;;;;;;8.87;4.37;;;;;;;6.70;85.33;100178.50;5011930;28;20294;-70
2021/11/02 00:38:20;;;;;;;13.23;4.13;;;;;;;6.65;85.60;100169.91;5012155;28;20179;-71
2021/11/02 00:40:46;;;;;;;7.67;3.90;;;;;;;6.65;84.81;100174.13;5010676;28;20190;-70
2021/11/02 00:43:12;;;;;;;10.27;4.43;;;;;;;6.62;85.81;100169.81;5010656;28;20191;-71
2021/11/02 00:45:41;;;;;;;7.57;4.27;;;;;;;6.63;86.25;100170.69;5009958;28;20711;-70
2021/11/02 00:48:11;;;;;;;8.60;4.30;;;;;;;6.63;86.19;100171.53;5011851;28;20634;-71
2021/11/02 00:50:39;;;;;;;7.97;4.03;;;;;;;6.67;85.44;100169.94;5011810;28;20240;-70
2021/11/02 00:53:06;;;;;;;5.30;3.83;;;;;;;6.64;86.20;100169.88;5012336;28;20194;-70
2021/11/02 00:55:33;;;;;;;7.93;4.57;;;;;;;6.66;85.95;100168.22;5008221;28;20215;-71
2021/11/02 00:58:01;;;;;;;5.83;3.53;;;;;;;6.61;85.94;100160.50;4991598;28;20581;-70
2021/11/02 01:00:26;;;;;;;10.37;4.17;;;;;;;6.67;85.46;100169.94;5011833;28;20180;-70
2021/11/02 01:02:52;;;;;;;9.47;4.47;;;;;;;6.68;86.17;100156.41;5014261;28;20630;-71
2021/11/02 01:05:18;;;;;;;7.20;4.10;;;;;;;6.68;85.56;100159.78;5011855;28;20211;-70
2021/11/02 01:07:44;;;;;;;8.03;4.60;;;;;;;6.66;85.95;100161.44;5007018;28;20231;-71
2021/11/02 01:10:15;;;;;;;10.87;4.57;;;;;;;6.61;85.92;100157.94;5011946;28;20191;-71
2021/11/02 01:12:41;;;;;;;7.10;3.57;;;;;;;6.66;86.12;100152.94;5003146;28;20199;-71
2021/11/02 01:15:07;;;;;;;11.17;3.73;;;;;;;6.69;86.03;100150.50;5010468;28;20572;-71
2021/11/02 01:17:32;;;;;;;6.60;3.93;;;;;;;6.68;86.28;100141.16;5004343;28;20203;-70
2021/11/02 01:19:57;;;;;;;8.47;4.50;;;;;;;6.61;85.80;100146.91;5009138;28;20214;-70
2021/11/02 01:22:23;;;;;;;8.50;4.20;;;;;;;6.69;86.11;100140.31;5010212;28;20915;-71
2021/11/02 01:24:49;;;;;;;8.93;3.83;;;;;;;6.70;85.97;100150.53;5011739;28;20229;-70
2021/11/02 01:27:15;;;;;;;9.53;3.63;;;;;;;6.71;86.83;100149.69;5008382;28;20214;-71
2021/11/02 01:29:40;;;;;;;9.63;3.90;;;;;;;6.76;86.55;100139.63;5009946;28;20265;-70
2021/11/02 01:32:08;;;;;;;9.70;4.10;;;;;;;6.75;87.23;100133.69;5004714;28;20565;-71
2021/11/02 01:34:38;;;;;;;6.20;4.33;;;;;;;6.81;87.09;100138.91;5008823;28;20257;-70
2021/11/02 01:37:04;;;;;;;9.20;4.40;;;;;;;6.83;87.79;100137.28;5009341;28;20195;-70
2021/11/02 01:39:31;;;;;;;11.33;4.97;;;;;;;6.85;88.27;100137.28;5007893;28;20258;-71
2021/11/02 01:41:57;;;;;;;9.40;4.93;;;;;;;6.83;87.54;100133.84;5009361;28;20188;-71
2021/11/02 01:44:22;;;;;;;8.20;4.53;;;;;;;6.78;87.89;100137.97;5008934;28;20265;-70
2021/11/02 01:46:49;;;;;;;8.77;4.13;;;;;;;6.76;87.20;100134.53;5009522;28;20183;-71
2021/11/02 01:49:17;;;;;;;15.63;4.80;;;;;;;6.71;87.81;100136.09;5008965;28;20213;-71
2021/11/02 01:51:43;;;;;;;7.97;4.90;;;;;;;6.65;87.33;100143.59;5009650;28;20179;-70
2021/11/02 01:54:08;;;;;;;9.43;4.70;;;;;;;6.67;87.28;100141.94;5009964;28;20183;-70
2021/11/02 01:56:36;;;;;;;8.33;4.77;;;;;;;6.62;87.03;100136.75;5008852;28;20845;-70
2021/11/02 01:59:04;;;;;;;11.50;5.27;;;;;;;6.62;86.91;100140.97;5008782;28;20727;-71
2021/11/02 02:02:06;;;;;;;7.93;4.60;;;;;;;6.58;86.65;100129.03;5008785;28;20551;-71
2021/11/02 02:04:54;;;;;;;8.33;4.70;;;;;;;6.57;86.04;100140.00;5009019;28;20218;-70
2021/11/02 02:07:47;;;;;;;8.20;4.60;;;;;;;6.49;87.20;100133.91;5008455;28;20210;-70
2021/11/02 02:10:26;;;;;;;9.20;4.73;;;;;;;6.49;87.13;100133.91;5008886;28;20191;-70
2021/11/02 02:13:07;;;;;;;9.77;4.23;;;;;;;6.47;86.50;100136.41;5007648;28;20202;-70
2021/11/02 02:16:01;;;;;;;9.47;5.30;;;;;;;6.42;86.36;100134.56;5023775;28;20265;-71
2021/11/02 02:18:46;;;;;;;10.27;4.50;;;;;;;6.41;86.70;100136.25;5007977;28;20261;-70
2021/11/02 02:21:25;;;;;;;8.83;4.40;;;;;;;6.40;86.71;100143.84;5009288;28;20249;-70
2021/11/02 02:24:08;;;;;;;7.63;4.17;;;;;;;6.39;86.72;100140.44;4989864;28;20219;-70
2021/11/02 02:27:04;;;;;;;8.67;5.03;;;;;;;6.37;86.06;100139.56;4993940;28;20661;-71
2021/11/02 02:29:33;;;;;;;5.77;4.20;;;;;;;6.34;86.60;100136.94;4999374;28;20657;-70
2021/11/02 02:32:04;;;;;;;9.27;4.13;;;;;;;6.36;86.60;100134.44;5009112;28;20198;-70
2021/11/02 02:34:31;;;;;;;9.63;3.87;;;;;;;6.37;86.44;100134.47;5010505;28;20314;-70
2021/11/02 02:36:57;;;;;;;8.07;3.90;;;;;;;6.37;86.45;100126.84;5009258;28;20226;-71
2021/11/02 02:39:24;;;;;;;8.47;4.10;;;;;;;6.32;87.01;100125.00;5008230;28;20237;-70
2021/11/02 02:42:14;;;;;;;7.10;4.07;;;;;;;6.38;87.16;100122.59;5005020;28;20260;-70
2021/11/02 02:44:46;;;;;;;9.83;4.30;;;;;;;6.38;87.08;100127.69;5003042;28;20207;-70
2021/11/02 02:47:14;;;;;;;8.27;4.30;;;;;;;6.37;88.06;100129.38;5007816;28;20473;-71
2021/11/02 02:49:41;;;;;;;12.47;4.97;;;;;;;6.34;87.52;100130.97;5001666;28;20195;-70
2021/11/02 02:52:07;;;;;;;8.70;4.60;;;;;;;6.31;87.60;100126.69;5008146;28;20226;-71
2021/11/02 02:54:34;;;;;;;9.33;4.00;;;;;;;6.31;87.50;100124.13;5007144;28;20222;-70
2021/11/02 02:57:02;;;;;;;10.87;4.53;;;;;;;6.27;87.25;100140.13;5007870;28;20206;-70
2021/11/02 02:59:29;;;;;;;9.40;3.83;;;;;;;6.25;87.48;100130.75;5008585;28;20353;-70
2021/11/02 03:01:54;;;;;;;8.37;4.10;;;;;;;6.19;87.15;100130.59;5007391;28;20179;-70
2021/11/02 03:04:27;;;;;;;7.60;3.80;;;;;;;6.17;86.60;100135.66;5007953;28;20262;-70
2021/11/02 03:06:56;;;;;;;6.77;4.13;;;;;;;6.23;86.84;100137.50;5007660;28;20377;-70
2021/11/02 03:09:29;;;;;;;8.73;4.30;;;;;;;6.09;86.61;100134.63;5005993;28;20187;-70
2021/11/02 03:11:57;;;;;;;5.77;4.23;;;;;;;6.08;87.22;100132.03;5002579;28;20192;-70
2021/11/02 03:14:36;;;;;;;7.50;3.67;;;;;;;6.07;87.08;100130.28;5006156;28;20676;-70
2021/11/02 03:17:08;;;;;;;6.97;4.37;;;;;;;6.10;86.52;100136.34;5002031;28;20203;-70
2021/11/02 03:55:42;;;;;;;6.80;3.50;;;;;;;5.70;86.29;100141.16;5007777;28;20227;-70
2021/11/02 03:58:16;;;;;;;6.90;3.90;;;;;;;5.67;86.23;100138.50;5008953;28;20249;-70
2021/11/02 04:01:01;;;;;;;9.07;4.40;;;;;;;5.74;86.67;100135.34;5008087;28;20293;-70
2021/11/02 04:31:32;;;;;;;8.83;4.33;;;;;;;5.54;87.81;100138.16;5006677;28;20201;-71
2021/11/02 04:38:08;;;;;;;9.07;4.80;;;;;;;5.55;87.87;100132.25;5008571;28;20205;-70
2021/11/02 05:09:49;;;;;;;10.17;5.23;;;;;;;5.49;87.51;100127.00;5010540;28;20787;-70
2021/11/02 05:51:28;;;;;;;9.90;5.03;;;;;;;5.10;87.16;100123.31;5007777;28;20195;-70
2021/11/02 05:56:31;;;;;;;8.13;4.97;;;;;;;5.09;86.80;100124.16;5009713;28;20222;-70
2021/11/02 06:01:51;;;;;;;9.23;5.30;;;;;;;5.10;87.58;100121.66;5008928;28;20187;-70
2021/11/02 06:08:06;;;;;;;9.43;5.43;;;;;;;5.06;87.56;100134.22;5010748;28;20205;-70
2021/11/02 06:29:50;;;;;;;9.17;5.50;;;;;;;4.92;87.20;100141.41;4998262;28;20198;-70
2021/11/02 06:32:21;;;;;;;8.97;5.70;;;;;;;4.86;86.98;100147.97;5008809;28;20183;-70
2021/11/02 06:35:06;;;;;;;8.53;5.27;;;;;;;4.87;86.66;100149.69;5008424;28;20249;-70
2021/11/02 06:37:51;;;;;;;7.67;5.60;;;;;;;4.91;86.61;100147.31;5010406;28;20668;-71
2021/11/02 06:43:08;;;;;;;11.07;5.30;;;;;;;4.93;86.60;100158.34;5010529;28;20241;-70
2021/11/02 06:51:23;;;;;;;8.87;5.77;;;;;;;5.06;86.94;100164.66;5010732;28;20203;-70
2021/11/02 06:54:21;;;;;;;8.47;5.60;;;;;;;5.13;87.14;100169.97;5002801;28;20198;-70
2021/11/02 07:19:35;;;;;;;16.37;7.70;;;;;;;5.88;89.67;100201.75;5009201;28;20199;-71
2021/11/02 07:22:26;;;;;;;12.80;8.10;;;;;;;5.93;89.30;100203.63;5003766;28;20287;-72
2021/11/02 07:25:24;;;;;;;16.00;8.53;;;;;;;5.99;89.77;100211.41;4988846;28;20212;-72
2021/11/02 08:46:28;;;;;;;7.33;5.13;;;;;;;8.46;82.29;100164.31;5012495;28;20602;-71
2021/11/02 08:48:58;;;;;;;10.13;5.37;;;;;;;8.96;81.32;100160.84;5012139;28;20206;-71
2021/11/02 08:51:25;;;;;;;11.47;5.63;;;;;;;8.83;80.29;100159.81;5012527;28;20180;-71
2021/11/02 08:53:53;;;;;;;10.17;5.30;;;;;;;9.05;79.38;100159.31;5012408;28;20222;-71
2021/11/02 08:56:19;;;;;;;8.17;4.33;;;;;;;9.17;78.18;100161.16;5012022;28;20230;-71
2021/11/02 08:58:46;;;;;;;8.73;4.43;;;;;;;9.12;78.73;100165.38;5012317;28;20215;-71
2021/11/02 09:01:16;;;;;;;9.90;4.33;;;;;;;9.53;77.81;100151.41;5012354;28;20617;-71
2021/11/02 09:03:46;;;;;;;6.70;4.53;;;;;;;9.59;77.10;100146.38;5011975;28;20191;-71
2021/11/02 09:06:15;;;;;;;9.13;4.37;;;;;;;10.57;73.66;100154.25;5011895;28;20792;-71
2021/11/02 09:08:43;;;;;;;6.77;4.27;;;;;;;9.56;76.81;100157.44;5011876;28;20215;-71
2021/11/02 09:11:12;;;;;;;9.67;4.53;;;;;;;9.31;77.53;100157.94;5012141;28;20184;-71
2021/11/02 09:13:41;;;;;;;10.30;4.40;;;;;;;9.08;78.99;100156.78;5010784;28;20194;-71
2021/11/02 09:16:07;;;;;;;7.27;4.03;;;;;;;9.15;79.25;100153.47;5011208;28;20207;-71
2021/11/02 09:18:33;;;;;;;7.20;4.03;;;;;;;9.15;79.24;100152.63;5012203;28;20596;-71
2021/11/02 09:20:58;;;;;;;8.67;4.30;;;;;;;9.38;78.85;100149.53;5012190;28;20187;-72
2021/11/02 09:23:26;;;;;;;9.10;5.33;;;;;;;9.54;78.07;100153.16;5011599;28;20652;-71
2021/11/02 09:25:53;;;;;;;10.20;4.70;;;;;;;9.67;77.78;100143.06;5011394;28;20215;-71
2021/11/02 09:28:19;;;;;;;7.47;4.83;;;;;;;9.97;76.64;100142.53;5011502;28;20239;-72
2021/11/02 09:30:45;;;;;;;10.53;4.60;;;;;;;9.97;77.17;100148.53;5011806;28;20214;-72
2021/11/02 09:33:10;;;;;;;6.70;4.17;;;;;;;10.17;75.81;100147.06;5011779;28;20610;-71
2021/11/02 09:35:36;;;;;;;6.30;4.63;;;;;;;11.24;73.77;100135.91;5011396;28;20203;-71
2021/11/02 09:38:32;;;;;;;5.50;4.30;;;;;;;13.43;64.37;100125.00;5010948;28;21118;-70
2021/11/02 09:41:20;;;;;;;7.27;4.03;;;;;;;12.70;66.74;100132.00;5009256;28;20278;-71
2021/11/02 09:44:17;;;;;;;5.40;3.80;;;;;;;12.45;67.81;100135.41;5011591;28;20184;-71
2021/11/02 09:47:12;;;;;;;5.60;3.60;;;;;;;12.02;69.91;100131.09;5011113;28;20195;-72
2021/11/02 09:50:02;;;;;;;9.13;4.57;;;;;;;11.66;72.29;100130.97;5011006;28;20219;-71
2021/11/02 09:53:04;;;;;;;5.63;3.70;;;;;;;11.55;72.55;100130.06;5011159;28;20222;-71
2021/11/02 09:55:43;;;;;;;6.17;4.17;;;;;;;11.32;71.81;100131.69;5017342;28;20218;-71
2021/11/02 09:58:56;;;;;;;6.17;4.00;;;;;;;11.03;73.96;100137.50;5008901;28;20176;-72
2021/11/02 10:01:49;;;;;;;7.90;4.30;;;;;;;11.03;73.90;100132.38;5008216;28;20610;-72
2021/11/02 10:04:48;;;;;;;5.30;3.77;;;;;;;11.11;73.69;100136.69;5007545;28;20234;-73
2021/11/02 10:07:29;;;;;;;8.77;4.23;;;;;;;11.44;72.58;100142.00;4990884;28;20262;-72
2021/11/02 10:09:57;;;;;;;6.30;4.20;;;;;;;11.71;71.04;100136.97;4992951;28;20585;-72
2021/11/02 10:12:28;;;;;;;11.03;4.87;;;;;;;11.94;71.42;100134.50;5006859;28;20754;-72
2021/11/02 10:15:06;;;;;;;4.63;3.80;;;;;;;11.93;71.55;100143.06;4989410;28;20214;-69
2021/11/02 10:17:54;;;;;;;7.27;4.40;;;;;;;11.37;72.93;100140.25;4990566;28;20175;-72
2021/11/02 10:20:34;;;;;;;6.50;4.60;;;;;;;11.13;73.91;100140.13;5004744;28;20747;-72
2021/11/02 10:23:48;;;;;;;5.23;4.43;;;;;;;11.24;75.15;100142.75;5008718;28;20193;-72
2021/11/02 10:26:23;;;;;;;8.93;4.67;;;;;;;11.59;73.89;100138.63;5010018;28;20203;-71
2021/11/02 10:28:58;;;;;;;10.27;4.93;;;;;;;11.43;74.23;100139.41;5010155;28;20231;-71
2021/11/02 10:31:43;;;;;;;8.13;5.07;;;;;;;11.68;73.73;100139.56;5010179;28;20270;-71
2021/11/02 10:34:22;;;;;;;10.80;4.70;;;;;;;12.05;71.65;100133.66;5009662;28;20191;-72
2021/11/02 10:36:55;;;;;;;6.53;4.57;;;;;;;12.54;70.58;100121.72;5002237;28;20280;-72
2021/11/02 10:39:34;;;;;;;7.37;4.43;;;;;;;12.76;69.15;100121.69;5010020;28;20510;-72
2021/11/02 10:42:21;;;;;;;8.77;4.50;;;;;;;13.17;67.78;100115.66;5009979;28;20187;-71
2021/11/02 10:44:51;;;;;;;8.50;4.27;;;;;;;13.51;66.07;100110.41;5008446;28;20219;-72
2021/11/02 10:47:29;;;;;;;4.90;4.03;;;;;;;13.41;67.17;100121.59;5008154;28;20191;-71
2021/11/02 10:50:05;;;;;;;5.47;4.17;;;;;;;13.54;67.11;100109.53;5007969;28;20191;-71
2021/11/02 10:52:33;;;;;;;8.00;4.60;;;;;;;13.82;66.19;100111.09;5009435;28;20547;-72
2021/11/02 10:55:18;;;;;;;7.07;4.07;;;;;;;14.25;64.93;100108.28;5009269;28;20202;-72
2021/11/02 10:58:02;;;;;;;7.43;4.07;;;;;;;17.28;56.10;100086.06;5009168;28;20199;-71
2021/11/02 11:00:29;;;;;;;5.47;4.10;;;;;;;22.72;42.88;100066.44;5009525;28;20663;-72
2021/11/02 11:02:55;;;;;;;5.32;3.85;;;;;;;24.06;38.26;100059.44;5009693;28;20195;-73
2021/11/02 11:05:27;;;;;;;7.00;3.60;;;;;;;26.15;35.25;100053.63;5008471;28;20692;-72
2021/11/02 11:07:54;;;;;;;5.18;3.35;;;;;;;26.42;33.80;100050.25;5008855;28;20238;-73
2021/11/02 11:10:22;;;;;;;4.90;3.53;;;;;;;27.27;32.81;100044.22;5009489;28;20737;-73
2021/11/02 11:12:55;;;;;;;5.78;3.90;;;;;;;26.81;32.75;100042.69;5009318;28;20852;-73
2021/11/02 11:15:21;;;;;;;4.97;3.92;;;;;;;26.72;32.47;100037.13;5008930;28;20226;-75
2021/11/02 11:18:05;;;;;;;5.53;3.80;;;;;;;27.06;32.29;100042.88;5008961;28;20208;-73
2021/11/02 11:20:32;;;;;;;7.47;3.67;;;;;;;27.09;31.85;100041.84;5009356;28;20176;-72
2021/11/02 11:22:59;;;;;;;7.00;4.07;;;;;;;27.82;31.38;100036.41;5009471;28;20522;-72
2021/11/02 11:25:36;;;;;;;6.50;4.03;;;;;;;28.07;30.70;100028.59;5009155;28;20672;-73
2021/11/02 11:28:03;;;;;;;6.43;3.85;;;;;;;27.87;30.61;100026.41;5007895;28;20202;-73
2021/11/02 11:30:35;;;;;;;7.20;4.30;;;;;;;28.20;30.97;100032.13;5009061;28;20218;-72
2021/11/02 11:33:07;;;;;;;7.78;4.20;;;;;;;28.90;29.91;100018.53;5009228;28;20183;-73
2021/11/02 11:35:36;;;;;;;5.15;4.10;;;;;;;29.28;28.40;100014.09;5008476;28;20302;-72
2021/11/02 11:38:04;;;;;;;6.45;4.20;;;;;;;29.59;27.49;100014.50;5007356;28;20277;-74
2021/11/02 11:40:34;;;;;;;6.25;4.30;;;;;;;30.05;28.02;100006.72;5009434;28;20218;-73
2021/11/02 11:43:02;;;;;;;6.28;3.55;;;;;;;28.85;28.19;100010.97;5009630;28;20587;-73
2021/11/02 11:45:30;;;;;;;8.52;4.80;;;;;;;27.47;31.08;100012.28;5009383;28;20199;-71
2021/11/02 11:48:07;;;;;;;6.20;4.10;;;;;;;27.98;30.38;100005.47;5011693;28;20238;-72
2021/11/02 11:50:36;;;;;;;6.13;4.10;;;;;;;27.11;29.93;100017.16;5015469;28;20289;-71
2021/11/02 11:53:03;;;;;;;7.05;4.53;;;;;;;26.52;32.50;100019.03;5011739;28;20195;-71
2021/11/02 11:55:33;;;;;;;7.82;4.35;;;;;;;27.48;30.33;100016.59;5012540;28;20219;-71
2021/11/02 11:58:17;;;;;;;5.55;4.10;;;;;;;27.78;31.06;100012.03;5012926;28;20183;-72
2021/11/02 12:00:47;;;;;;;6.93;4.82;;;;;;;28.32;29.71;100012.88;5012844;28;20187;-72
2021/11/02 12:03:35;;;;;;;6.15;4.10;;;;;;;28.52;29.17;100007.13;5012700;28;20191;-73
2021/11/02 12:06:12;;;;;;;5.72;3.80;;;;;;;28.70;29.56;100005.88;5012249;28;20560;-73
2021/11/02 12:08:57;;;;;;;5.63;3.40;;;;;;;27.54;30.47;100018.00;5012665;28;20218;-73
2021/11/02 12:11:29;;;;;;;5.13;3.45;;;;;;;26.72;32.79;100011.69;5012087;28;20214;-71
2021/11/02 12:14:07;;;;;;;6.65;4.10;;;;;;;23.62;36.89;100031.03;5012786;28;20290;-71
2021/11/02 12:16:39;;;;;;;6.10;4.43;;;;;;;22.43;39.42;100036.31;5012170;28;20264;-72
2021/11/02 12:19:11;;;;;;;6.45;4.07;;;;;;;21.73;40.35;100032.22;5012447;28;20188;-71
2021/11/02 12:21:39;;;;;;;5.78;3.60;;;;;;;21.27;42.44;100025.28;5012396;28;20187;-72
2021/11/02 12:24:08;;;;;;;8.82;4.30;;;;;;;23.58;38.85;100022.47;5012435;28;20183;-72
2021/11/02 12:26:49;;;;;;;6.93;4.85;;;;;;;27.06;32.91;100000.81;5012114;28;20198;-72
2021/11/02 12:29:23;;;;;;;6.47;4.03;;;;;;;28.67;30.50;99998.19;5012319;28;20238;-73
2021/11/02 12:32:00;;;;;;;7.40;4.13;;;;;;;26.08;32.75;100002.38;5012305;28;20530;-72
2021/11/02 12:34:29;;;;;;;5.93;4.00;;;;;;;26.95;32.53;100000.66;5012141;28;20265;-72
2021/11/02 12:36:59;;;;;;;7.07;4.13;;;;;;;27.30;31.88;99998.50;5010722;28;20206;-73
2021/11/02 12:39:28;;;;;;;5.53;3.28;;;;;;;23.77;36.88;100017.22;5011947;28;20278;-71
2021/11/02 12:41:59;;;;;;;4.97;3.38;;;;;;;26.65;33.39;100001.63;5012203;28;20599;-72
2021/11/02 12:44:38;;;;;;;6.28;3.63;;;;;;;25.15;34.39;100004.94;5012056;28;20279;-71
2021/11/02 12:47:10;;;;;;;6.70;3.38;;;;;;;21.12;41.19;100017.19;5011946;28;20183;-72
2021/11/02 12:49:48;;;;;;;6.67;3.30;;;;;;;18.67;46.72;100037.09;5010162;28;20219;-73
2021/11/02 12:52:16;;;;;;;5.73;3.57;;;;;;;18.44;47.52;100037.69;5011575;28;20557;-72
2021/11/02 12:54:41;;;;;;;7.37;3.40;;;;;;;18.02;49.46;100033.53;4999048;28;20243;-72
2021/11/02 12:57:16;;;;;;;7.60;3.97;;;;;;;17.79;50.73;100034.94;5012078;28;20184;-72
2021/11/02 12:59:47;;;;;;;7.43;3.73;;;;;;;17.39;51.82;100042.72;5011602;28;20186;-72
2021/11/02 13:02:17;;;;;;;7.83;3.50;;;;;;;17.04;53.06;100039.13;5011412;28;20272;-72
2021/11/02 13:04:48;;;;;;;8.93;3.90;;;;;;;17.10;53.62;100033.81;5010489;28;20819;-71
2021/11/02 13:07:13;;;;;;;8.80;3.47;;;;;;;17.01;53.64;100040.03;5010583;28;20199;-71
2021/11/02 13:09:39;;;;;;;6.20;3.60;;;;;;;16.89;54.62;100036.81;5011932;28;20207;-72
2021/11/02 13:12:08;;;;;;;10.63;3.90;;;;;;;16.66;55.66;100036.38;5010623;28;20191;-71
2021/11/02 13:14:47;;;;;;;6.13;4.00;;;;;;;16.22;55.46;100038.88;5011747;28;20285;-70
2021/11/02 13:17:16;;;;;;;6.40;3.93;;;;;;;16.21;57.02;100039.75;5011388;28;20289;-71
2021/11/02 13:19:51;;;;;;;7.30;3.73;;;;;;;16.04;57.29;100046.91;5011953;28;20180;-72
2021/11/02 13:22:20;;;;;;;7.03;3.77;;;;;;;16.21;56.87;100050.09;5011826;28;20238;-71
2021/11/02 13:24:59;;;;;;;8.87;4.00;;;;;;;16.15;58.07;100037.25;5011737;28;20631;-70
2021/11/02 13:27:40;;;;;;;8.00;4.00;;;;;;;16.14;58.03;100043.28;5011448;28;20290;-71
2021/11/02 13:30:43;;;;;;;6.30;3.53;;;;;;;16.25;56.67;100044.81;5011349;28;20282;-72
2021/11/02 13:33:15;;;;;;;6.57;3.50;;;;;;;19.45;49.00;100032.31;5011711;28;20277;-71
2021/11/02 13:35:55;;;;;;;4.67;3.07;;;;;;;23.09;40.41;100017.78;4993647;28;20215;-72
2021/11/02 13:38:30;;;;;;;5.05;2.83;;;;;;;26.18;33.79;100007.03;5010284;28;20176;-72
2021/11/02 13:41:00;;;;;;;5.10;2.40;;;;;;;23.25;37.54;100015.34;5010159;28;20237;-71
2021/11/02 13:43:35;;;;;;;6.75;3.05;;;;;;;23.32;37.46;100022.84;5011569;28;20830;-73
2021/11/02 13:46:01;;;;;;;7.10;3.00;;;;;;;26.01;34.07;100007.13;5009742;28;20213;-71
2021/11/02 13:48:29;;;;;;;4.55;2.22;;;;;;;24.75;34.69;100013.19;5011145;28;20246;-72
2021/11/02 13:50:55;;;;;;;4.72;2.53;;;;;;;20.71;42.14;100036.84;5011383;28;20221;-71
2021/11/02 13:53:22;;;;;;;7.03;2.70;;;;;;;18.42;46.71;100042.03;5011147;28;20184;-71
2021/11/02 13:55:49;;;;;;;5.47;2.60;;;;;;;16.63;50.21;100046.81;4996678;28;20234;-71
2021/11/02 13:58:15;;;;;;;7.57;2.60;;;;;;;15.85;52.67;100055.81;5009468;28;20199;-74
2021/11/02 14:00:41;;;;;;;6.47;2.83;;;;;;;15.42;54.94;100060.69;5009656;28;20258;-71
2021/11/02 14:03:14;;;;;;;3.70;2.40;;;;;;;15.00;55.35;100061.19;5011159;28;20246;-71
2021/11/02 14:05:43;;;;;;;4.07;2.87;;;;;;;15.12;55.58;100060.19;5010962;28;20294;-71
2021/11/02 14:08:09;;;;;;;5.67;2.80;;;;;;;14.90;56.36;100066.44;5011056;28;20264;-71
2021/11/02 14:10:35;;;;;;;4.13;2.20;;;;;;;14.66;56.78;100061.53;5010215;28;20605;-71
2021/11/02 14:13:00;;;;;;;6.53;2.63;;;;;;;14.40;57.09;100051.47;5010802;28;20278;-71
2021/11/02 14:15:30;;;;;;;4.60;2.30;;;;;;;13.99;57.67;100063.78;5010289;28;20314;-70
2021/11/02 14:18:06;;;;;;;4.27;2.27;;;;;;;13.84;58.70;100063.03;5009459;28;20187;-71
2021/11/02 14:20:51;;;;;;;4.83;2.33;;;;;;;13.74;59.45;100067.41;4990848;28;20221;-71
2021/11/02 14:23:29;;;;;;;3.40;2.20;;;;;;;13.50;59.48;100071.81;5008938;28;20598;-71
2021/11/02 14:26:24;;;;;;;6.13;2.33;;;;;;;13.11;61.22;100075.41;5006838;28;20696;-72
2021/11/02 14:28:57;;;;;;;5.93;3.23;;;;;;;13.17;61.56;100070.22;5009371;28;20226;-72
2021/11/02 14:31:34;;;;;;;6.40;3.10;;;;;;;13.10;61.91;100066.00;5009305;28;20302;-72
2021/11/02 14:34:01;;;;;;;5.27;2.90;;;;;;;13.01;62.19;100067.72;5010508;28;20657;-72
2021/11/02 14:36:39;;;;;;;6.10;3.10;;;;;;;12.97;62.79;100074.59;5010043;28;20565;-73
2021/11/02 14:39:11;;;;;;;7.50;3.23;;;;;;;12.94;63.42;100070.28;5009976;28;20663;-72
2021/11/02 14:41:45;;;;;;;5.93;3.30;;;;;;;12.84;63.48;100073.75;5010085;28;20190;-73
2021/11/02 14:44:13;;;;;;;5.33;3.20;;;;;;;12.79;64.22;100074.59;5007757;28;20250;-72
2021/11/02 14:46:43;;;;;;;8.60;3.47;;;;;;;12.80;64.14;100071.16;5005007;28;20211;-73
2021/11/02 14:49:32;;;;;;;7.27;3.70;;;;;;;12.74;64.42;100077.19;5009568;28;20211;-73
2021/11/02 14:51:59;;;;;;;62.43;48.30;;;;;;;12.70;65.39;100082.31;5009569;28;20199;-72
2021/11/02 14:54:29;;;;;;;13.10;6.80;;;;;;;12.59;64.99;100079.75;5009495;28;20219;-71
2021/11/02 14:56:55;;;;;;;8.03;4.70;;;;;;;12.66;65.67;100083.19;4994634;28;20237;-71
2021/11/02 14:59:20;;;;;;;8.53;5.20;;;;;;;13.32;63.42;100077.91;5009339;28;20266;-72
2021/11/02 15:01:46;;;;;;;8.03;4.70;;;;;;;12.95;64.20;100084.84;5008304;28;20848;-72
2021/11/02 15:04:18;;;;;;;8.33;5.03;;;;;;;12.82;65.46;100085.72;5009691;28;20195;-71
2021/11/02 15:06:44;;;;;;;5.70;3.93;;;;;;;12.68;66.05;100077.19;5009574;28;20226;-73
2021/11/02 15:09:17;;;;;;;7.10;4.37;;;;;;;12.51;65.95;100081.50;5009441;28;20302;-72
2021/11/02 15:11:45;;;;;;;7.90;4.67;;;;;;;12.45;66.61;100081.47;5005105;28;20317;-72
2021/11/02 15:14:15;;;;;;;7.93;4.53;;;;;;;12.34;67.21;100088.34;5009027;28;20221;-72
2021/11/02 15:16:43;;;;;;;6.37;4.93;;;;;;;12.28;67.39;100085.78;5007869;28;20253;-72
2021/11/02 15:19:10;;;;;;;10.57;4.83;;;;;;;12.26;67.21;100084.06;5007878;28;20252;-72
2021/11/02 15:22:04;;;;;;;6.73;4.40;;;;;;;12.19;67.92;100083.22;5009007;28;20827;-72
2021/11/02 15:24:31;;;;;;;6.57;4.67;;;;;;;12.20;68.24;100086.63;5007339;28;20223;-72
2021/11/02 15:27:04;;;;;;;7.00;4.70;;;;;;;12.14;68.57;100086.63;5006611;28;20230;-72
2021/11/02 15:29:32;;;;;;;5.97;4.87;;;;;;;12.12;69.13;100085.78;5003976;28;20235;-72
2021/11/02 15:32:06;;;;;;;12.97;4.90;;;;;;;12.04;69.07;100087.47;5009142;28;20262;-72
2021/11/02 15:34:35;;;;;;;7.27;4.33;;;;;;;12.04;69.86;100090.03;5008785;28;20276;-72
2021/11/02 15:37:25;;;;;;;6.27;4.23;;;;;;;11.98;70.00;100090.88;5007501;28;20195;-72
2021/11/02 15:39:59;;;;;;;6.03;4.10;;;;;;;12.00;69.71;100089.19;5009188;28;20278;-72
2021/11/02 15:42:31;;;;;;;7.53;4.47;;;;;;;11.93;70.50;100086.63;5007849;28;20225;-72
2021/11/02 15:45:03;;;;;;;7.83;4.03;;;;;;;11.78;71.66;100094.25;5008739;28;20238;-72
2021/11/02 15:47:31;;;;;;;5.20;3.60;;;;;;;11.79;70.81;100094.25;5008896;28;20191;-72
2021/11/02 15:49:59;;;;;;;8.00;4.30;;;;;;;11.63;72.42;100094.22;5008950;28;20211;-72
2021/11/02 15:52:27;;;;;;;9.17;5.03;;;;;;;11.60;72.66;100094.19;5008967;28;20202;-71
2021/11/02 15:54:53;;;;;;;7.77;4.47;;;;;;;11.64;72.43;100095.94;5008922;28;20611;-71
2021/11/02 15:57:18;;;;;;;5.90;4.87;;;;;;;11.65;72.15;100098.50;5009087;28;20262;-71
2021/11/02 15:59:43;;;;;;;8.20;4.50;;;;;;;11.65;71.45;100101.06;5009408;28;20183;-72
2021/11/02 16:02:09;;;;;;;6.97;5.00;;;;;;;11.59;72.11;100101.06;5009233;28;20199;-72
2021/11/02 16:04:34;;;;;;;7.33;4.97;;;;;;;11.58;72.10;100101.88;5009368;28;20210;-72
2021/11/02 16:07:06;;;;;;;8.10;4.93;;;;;;;11.49;72.27;100103.56;5004765;28;20766;-72
2021/11/02 16:09:54;;;;;;;8.00;5.33;;;;;;;11.49;72.55;100109.53;5008620;28;20202;-72
2021/11/02 16:12:30;;;;;;;8.27;5.23;;;;;;;11.44;72.45;100113.81;5009534;28;20196;-72
2021/11/02 16:15:08;;;;;;;9.00;5.07;;;;;;;11.40;72.52;100106.94;5001325;28;20773;-72
2021/11/02 16:17:39;;;;;;;7.77;4.67;;;;;;;11.44;72.35;100108.69;5008050;28;20529;-72
2021/11/02 16:20:06;;;;;;;7.03;5.13;;;;;;;11.40;72.43;100104.38;5004559;28;20253;-72
2021/11/02 16:22:44;;;;;;;6.63;4.80;;;;;;;11.32;72.59;100108.59;5008967;28;20881;-71
2021/11/02 16:25:10;;;;;;;6.60;4.47;;;;;;;11.29;72.79;100108.59;5009134;28;20215;-72
2021/11/02 16:27:36;;;;;;;9.43;5.40;;;;;;;11.23;72.78;100118.81;5008954;28;20283;-71